sensor_id;sensor_type;location;lat;lon;timestamp;temperature;humidity
54006;DHT22;39919;38.160;-122.260;2022-10-18T00:01:16;24.00;55.70
54006;DHT22;39919;38.160;-122.260;2022-10-18T00:03:45;24.00;55.40
54006;DHT22;39919;38.160;-122.260;2022-10-18T00:06:14;23.90;55.50
54006;DHT22;39919;38.160;-122.260;2022-10-18T00:08:45;23.90;55.60
54006;DHT22;39919;38.160;-122.260;2022-10-18T00:11:14;23.90;55.80
54006;DHT22;39919;38.160;-122.260;2022-10-18T00:13:42;23.80;55.60
54006;DHT22;39919;38.160;-122.260;2022-10-18T00:16:11;23.80;55.80
54006;DHT22;39919;38.160;-122.260;2022-10-18T00:18:40;23.80;55.90
54006;DHT22;39919;38.160;-122.260;2022-10-18T00:21:10;23.70;55.80
54006;DHT22;39919;38.160;-122.260;2022-10-18T00:23:38;23.60;56.00
54006;DHT22;39919;38.160;-122.260;2022-10-18T00:26:08;23.60;56.30
54006;DHT22;39919;38.160;-122.260;2022-10-18T00:28:40;23.60;56.20
54006;DHT22;39919;38.160;-122.260;2022-10-18T00:31:12;23.50;56.40
54006;DHT22;39919;38.160;-122.260;2022-10-18T00:33:42;23.50;56.60
54006;DHT22;39919;38.160;-122.260;2022-10-18T00:36:13;23.40;56.50
54006;DHT22;39919;38.160;-122.260;2022-10-18T00:38:42;23.40;56.50
54006;DHT22;39919;38.160;-122.260;2022-10-18T00:41:13;23.30;56.70
54006;DHT22;39919;38.160;-122.260;2022-10-18T00:43:52;23.30;56.80
54006;DHT22;39919;38.160;-122.260;2022-10-18T00:46:20;23.20;56.90
54006;DHT22;39919;38.160;-122.260;2022-10-18T00:48:49;23.10;57.10
54006;DHT22;39919;38.160;-122.260;2022-10-18T00:51:20;23.10;57.40
54006;DHT22;39919;38.160;-122.260;2022-10-18T00:53:49;23.10;57.90
54006;DHT22;39919;38.160;-122.260;2022-10-18T00:56:19;23.00;58.00
54006;DHT22;39919;38.160;-122.260;2022-10-18T00:58:48;23.00;58.50
54006;DHT22;39919;38.160;-122.260;2022-10-18T01:01:16;22.80;58.30
54006;DHT22;39919;38.160;-122.260;2022-10-18T01:03:45;22.80;58.80
54006;DHT22;39919;38.160;-122.260;2022-10-18T01:06:13;22.70;59.20
54006;DHT22;39919;38.160;-122.260;2022-10-18T01:08:49;22.70;59.20
54006;DHT22;39919;38.160;-122.260;2022-10-18T01:11:40;22.60;59.20
54006;DHT22;39919;38.160;-122.260;2022-10-18T01:14:14;22.60;60.00
54006;DHT22;39919;38.160;-122.260;2022-10-18T01:16:44;22.50;59.80
54006;DHT22;39919;38.160;-122.260;2022-10-18T01:19:22;22.40;60.50
54006;DHT22;39919;38.160;-122.260;2022-10-18T01:21:56;22.30;60.30
54006;DHT22;39919;38.160;-122.260;2022-10-18T01:24:41;22.20;60.60
54006;DHT22;39919;38.160;-122.260;2022-10-18T01:27:22;22.20;60.60
54006;DHT22;39919;38.160;-122.260;2022-10-18T01:30:03;22.10;60.50
54006;DHT22;39919;38.160;-122.260;2022-10-18T01:32:49;22.00;60.60
54006;DHT22;39919;38.160;-122.260;2022-10-18T01:35:22;21.90;61.60
54006;DHT22;39919;38.160;-122.260;2022-10-18T01:37:52;21.80;61.50
54006;DHT22;39919;38.160;-122.260;2022-10-18T01:40:23;21.70;61.90
54006;DHT22;39919;38.160;-122.260;2022-10-18T01:42:54;21.60;63.70
54006;DHT22;39919;38.160;-122.260;2022-10-18T01:45:22;21.60;64.00
54006;DHT22;39919;38.160;-122.260;2022-10-18T01:47:57;21.50;64.30
54006;DHT22;39919;38.160;-122.260;2022-10-18T01:50:28;21.40;66.20
54006;DHT22;39919;38.160;-122.260;2022-10-18T01:52:57;21.30;66.50
54006;DHT22;39919;38.160;-122.260;2022-10-18T01:55:26;21.20;66.80
54006;DHT22;39919;38.160;-122.260;2022-10-18T01:58:01;21.20;67.90
54006;DHT22;39919;38.160;-122.260;2022-10-18T02:00:31;21.10;67.50
54006;DHT22;39919;38.160;-122.260;2022-10-18T02:03:04;21.00;68.00
54006;DHT22;39919;38.160;-122.260;2022-10-18T02:05:40;21.00;67.90
54006;DHT22;39919;38.160;-122.260;2022-10-18T02:08:16;20.90;67.50
54006;DHT22;39919;38.160;-122.260;2022-10-18T02:10:50;20.80;66.90
54006;DHT22;39919;38.160;-122.260;2022-10-18T02:13:20;20.70;66.70
54006;DHT22;39919;38.160;-122.260;2022-10-18T02:15:49;20.60;66.70
54006;DHT22;39919;38.160;-122.260;2022-10-18T02:18:22;20.60;66.80
54006;DHT22;39919;38.160;-122.260;2022-10-18T02:20:52;20.50;66.50
54006;DHT22;39919;38.160;-122.260;2022-10-18T02:23:22;20.40;66.40
54006;DHT22;39919;38.160;-122.260;2022-10-18T02:25:55;20.40;66.60
54006;DHT22;39919;38.160;-122.260;2022-10-18T02:28:23;20.30;66.50
54006;DHT22;39919;38.160;-122.260;2022-10-18T02:30:56;20.20;66.50
54006;DHT22;39919;38.160;-122.260;2022-10-18T02:33:31;20.10;66.90
54006;DHT22;39919;38.160;-122.260;2022-10-18T02:36:01;20.10;66.80
54006;DHT22;39919;38.160;-122.260;2022-10-18T02:38:34;20.00;67.40
54006;DHT22;39919;38.160;-122.260;2022-10-18T02:41:03;20.00;67.60
54006;DHT22;39919;38.160;-122.260;2022-10-18T02:43:32;19.90;67.40
54006;DHT22;39919;38.160;-122.260;2022-10-18T02:46:05;19.80;67.60
54006;DHT22;39919;38.160;-122.260;2022-10-18T02:48:35;19.70;67.40
54006;DHT22;39919;38.160;-122.260;2022-10-18T02:51:03;19.70;67.60
54006;DHT22;39919;38.160;-122.260;2022-10-18T02:53:32;19.60;67.50
54006;DHT22;39919;38.160;-122.260;2022-10-18T02:56:00;19.60;67.60
54006;DHT22;39919;38.160;-122.260;2022-10-18T02:58:29;19.60;68.30
54006;DHT22;39919;38.160;-122.260;2022-10-18T03:00:57;19.50;68.60
54006;DHT22;39919;38.160;-122.260;2022-10-18T03:03:25;19.40;68.70
54006;DHT22;39919;38.160;-122.260;2022-10-18T03:05:56;19.40;68.70
54006;DHT22;39919;38.160;-122.260;2022-10-18T03:08:24;19.30;68.90
54006;DHT22;39919;38.160;-122.260;2022-10-18T03:10:53;19.30;69.30
54006;DHT22;39919;38.160;-122.260;2022-10-18T03:13:21;19.20;69.30
54006;DHT22;39919;38.160;-122.260;2022-10-18T03:15:52;19.20;69.40
54006;DHT22;39919;38.160;-122.260;2022-10-18T03:18:20;19.10;69.30
54006;DHT22;39919;38.160;-122.260;2022-10-18T03:20:48;19.10;69.40
54006;DHT22;39919;38.160;-122.260;2022-10-18T03:23:21;19.00;70.20
54006;DHT22;39919;38.160;-122.260;2022-10-18T03:25:49;19.00;70.40
54006;DHT22;39919;38.160;-122.260;2022-10-18T03:28:17;18.90;70.60
54006;DHT22;39919;38.160;-122.260;2022-10-18T03:30:59;18.90;71.00
54006;DHT22;39919;38.160;-122.260;2022-10-18T03:33:32;18.80;71.30
54006;DHT22;39919;38.160;-122.260;2022-10-18T03:36:03;18.80;71.20
54006;DHT22;39919;38.160;-122.260;2022-10-18T03:38:33;18.70;71.10
54006;DHT22;39919;38.160;-122.260;2022-10-18T03:41:02;18.70;71.30
54006;DHT22;39919;38.160;-122.260;2022-10-18T03:43:31;18.70;71.10
54006;DHT22;39919;38.160;-122.260;2022-10-18T03:46:02;18.60;71.30
54006;DHT22;39919;38.160;-122.260;2022-10-18T03:48:30;18.60;71.30
54006;DHT22;39919;38.160;-122.260;2022-10-18T03:51:01;18.50;71.10
54006;DHT22;39919;38.160;-122.260;2022-10-18T03:53:30;18.50;71.80
54006;DHT22;39919;38.160;-122.260;2022-10-18T03:56:00;18.50;72.10
54006;DHT22;39919;38.160;-122.260;2022-10-18T03:58:28;18.40;72.00
54006;DHT22;39919;38.160;-122.260;2022-10-18T04:00:56;18.40;71.80
54006;DHT22;39919;38.160;-122.260;2022-10-18T04:03:24;18.30;72.00
54006;DHT22;39919;38.160;-122.260;2022-10-18T04:05:53;18.30;71.70
54006;DHT22;39919;38.160;-122.260;2022-10-18T04:08:21;18.30;71.50
54006;DHT22;39919;38.160;-122.260;2022-10-18T04:10:50;18.30;72.20
54006;DHT22;39919;38.160;-122.260;2022-10-18T04:13:20;18.20;72.50
54006;DHT22;39919;38.160;-122.260;2022-10-18T04:15:55;18.20;72.60
54006;DHT22;39919;38.160;-122.260;2022-10-18T04:18:31;18.20;72.40
54006;DHT22;39919;38.160;-122.260;2022-10-18T04:21:00;18.10;73.00
54006;DHT22;39919;38.160;-122.260;2022-10-18T04:23:28;18.10;72.70
54006;DHT22;39919;38.160;-122.260;2022-10-18T04:25:57;18.10;72.90
54006;DHT22;39919;38.160;-122.260;2022-10-18T04:30:57;18.00;73.40
54006;DHT22;39919;38.160;-122.260;2022-10-18T04:33:25;17.90;73.40
54006;DHT22;39919;38.160;-122.260;2022-10-18T04:35:53;17.90;73.20
54006;DHT22;39919;38.160;-122.260;2022-10-18T04:38:22;17.90;72.90
54006;DHT22;39919;38.160;-122.260;2022-10-18T04:40:50;17.80;72.90
54006;DHT22;39919;38.160;-122.260;2022-10-18T04:43:18;17.80;73.00
54006;DHT22;39919;38.160;-122.260;2022-10-18T04:45:46;17.80;72.90
54006;DHT22;39919;38.160;-122.260;2022-10-18T04:48:17;17.70;72.70
54006;DHT22;39919;38.160;-122.260;2022-10-18T04:50:47;17.70;73.00
54006;DHT22;39919;38.160;-122.260;2022-10-18T04:53:15;17.70;73.70
54006;DHT22;39919;38.160;-122.260;2022-10-18T04:55:44;17.60;73.80
54006;DHT22;39919;38.160;-122.260;2022-10-18T04:58:12;17.60;73.80
54006;DHT22;39919;38.160;-122.260;2022-10-18T05:00:40;17.50;73.60
54006;DHT22;39919;38.160;-122.260;2022-10-18T05:03:12;17.50;73.90
54006;DHT22;39919;38.160;-122.260;2022-10-18T05:05:43;17.50;74.50
54006;DHT22;39919;38.160;-122.260;2022-10-18T05:08:11;17.50;74.90
54006;DHT22;39919;38.160;-122.260;2022-10-18T05:10:39;17.40;74.80
54006;DHT22;39919;38.160;-122.260;2022-10-18T05:13:08;17.40;74.90
54006;DHT22;39919;38.160;-122.260;2022-10-18T05:15:36;17.30;74.60
54006;DHT22;39919;38.160;-122.260;2022-10-18T05:18:04;17.30;74.50
54006;DHT22;39919;38.160;-122.260;2022-10-18T05:20:32;17.20;74.60
54006;DHT22;39919;38.160;-122.260;2022-10-18T05:23:02;17.20;74.70
54006;DHT22;39919;38.160;-122.260;2022-10-18T05:25:33;17.20;75.00
54006;DHT22;39919;38.160;-122.260;2022-10-18T05:28:01;17.10;74.70
54006;DHT22;39919;38.160;-122.260;2022-10-18T05:30:30;17.10;74.70
54006;DHT22;39919;38.160;-122.260;2022-10-18T05:32:58;17.00;75.10
54006;DHT22;39919;38.160;-122.260;2022-10-18T05:35:26;17.00;75.40
54006;DHT22;39919;38.160;-122.260;2022-10-18T05:37:55;17.00;75.40
54006;DHT22;39919;38.160;-122.260;2022-10-18T05:40:28;17.00;75.60
54006;DHT22;39919;38.160;-122.260;2022-10-18T05:42:56;16.90;75.30
54006;DHT22;39919;38.160;-122.260;2022-10-18T05:45:24;16.90;75.20
54006;DHT22;39919;38.160;-122.260;2022-10-18T05:47:53;16.90;75.40
54006;DHT22;39919;38.160;-122.260;2022-10-18T05:50:23;16.80;75.90
54006;DHT22;39919;38.160;-122.260;2022-10-18T05:52:52;16.80;75.80
54006;DHT22;39919;38.160;-122.260;2022-10-18T05:55:22;16.70;75.50
54006;DHT22;39919;38.160;-122.260;2022-10-18T05:57:52;16.70;75.20
54006;DHT22;39919;38.160;-122.260;2022-10-18T06:00:29;16.70;75.50
54006;DHT22;39919;38.160;-122.260;2022-10-18T06:02:58;16.60;76.00
54006;DHT22;39919;38.160;-122.260;2022-10-18T06:05:26;16.60;75.90
54006;DHT22;39919;38.160;-122.260;2022-10-18T06:07:55;16.60;76.40
54006;DHT22;39919;38.160;-122.260;2022-10-18T06:10:23;16.50;76.40
54006;DHT22;39919;38.160;-122.260;2022-10-18T06:12:53;16.50;76.90
54006;DHT22;39919;38.160;-122.260;2022-10-18T06:15:22;16.40;76.90
54006;DHT22;39919;38.160;-122.260;2022-10-18T06:17:50;16.40;77.00
54006;DHT22;39919;38.160;-122.260;2022-10-18T06:20:20;16.30;77.10
54006;DHT22;39919;38.160;-122.260;2022-10-18T06:22:50;16.30;77.20
54006;DHT22;39919;38.160;-122.260;2022-10-18T06:25:19;16.30;76.90
54006;DHT22;39919;38.160;-122.260;2022-10-18T06:27:47;16.20;77.00
54006;DHT22;39919;38.160;-122.260;2022-10-18T06:30:17;16.20;77.00
54006;DHT22;39919;38.160;-122.260;2022-10-18T06:32:45;16.20;77.00
54006;DHT22;39919;38.160;-122.260;2022-10-18T06:35:13;16.10;76.80
54006;DHT22;39919;38.160;-122.260;2022-10-18T06:37:42;16.10;77.00
54006;DHT22;39919;38.160;-122.260;2022-10-18T06:40:10;16.00;76.70
54006;DHT22;39919;38.160;-122.260;2022-10-18T06:42:39;16.00;76.70
54006;DHT22;39919;38.160;-122.260;2022-10-18T06:45:07;15.90;76.70
54006;DHT22;39919;38.160;-122.260;2022-10-18T06:47:38;15.90;77.00
54006;DHT22;39919;38.160;-122.260;2022-10-18T06:50:06;15.90;77.20
54006;DHT22;39919;38.160;-122.260;2022-10-18T06:52:36;15.80;77.10
54006;DHT22;39919;38.160;-122.260;2022-10-18T06:55:07;15.90;77.50
54006;DHT22;39919;38.160;-122.260;2022-10-18T06:57:36;15.80;77.50
54006;DHT22;39919;38.160;-122.260;2022-10-18T07:00:04;15.80;77.70
54006;DHT22;39919;38.160;-122.260;2022-10-18T07:02:33;15.80;77.40
54006;DHT22;39919;38.160;-122.260;2022-10-18T07:05:04;15.80;77.30
54006;DHT22;39919;38.160;-122.260;2022-10-18T07:07:32;15.70;77.40
54006;DHT22;39919;38.160;-122.260;2022-10-18T07:10:00;15.70;77.50
54006;DHT22;39919;38.160;-122.260;2022-10-18T07:12:28;15.70;77.80
54006;DHT22;39919;38.160;-122.260;2022-10-18T07:14:57;15.70;78.00
54006;DHT22;39919;38.160;-122.260;2022-10-18T07:17:25;15.60;78.00
54006;DHT22;39919;38.160;-122.260;2022-10-18T07:19:54;15.60;78.10
54006;DHT22;39919;38.160;-122.260;2022-10-18T07:22:23;15.60;78.10
54006;DHT22;39919;38.160;-122.260;2022-10-18T07:24:52;15.60;78.50
54006;DHT22;39919;38.160;-122.260;2022-10-18T07:27:20;15.50;78.70
54006;DHT22;39919;38.160;-122.260;2022-10-18T07:29:48;15.50;78.70
54006;DHT22;39919;38.160;-122.260;2022-10-18T07:32:16;15.50;78.80
54006;DHT22;39919;38.160;-122.260;2022-10-18T07:34:45;15.40;78.80
54006;DHT22;39919;38.160;-122.260;2022-10-18T07:37:13;15.40;78.90
54006;DHT22;39919;38.160;-122.260;2022-10-18T07:39:43;15.30;79.00
54006;DHT22;39919;38.160;-122.260;2022-10-18T07:42:11;15.30;79.10
54006;DHT22;39919;38.160;-122.260;2022-10-18T07:44:42;15.30;79.30
54006;DHT22;39919;38.160;-122.260;2022-10-18T07:47:10;15.30;79.40
54006;DHT22;39919;38.160;-122.260;2022-10-18T07:49:38;15.30;79.80
54006;DHT22;39919;38.160;-122.260;2022-10-18T07:52:07;15.20;80.00
54006;DHT22;39919;38.160;-122.260;2022-10-18T07:54:35;15.20;79.60
54006;DHT22;39919;38.160;-122.260;2022-10-18T07:57:06;15.20;79.80
54006;DHT22;39919;38.160;-122.260;2022-10-18T07:59:34;15.20;79.90
54006;DHT22;39919;38.160;-122.260;2022-10-18T08:02:03;15.20;79.70
54006;DHT22;39919;38.160;-122.260;2022-10-18T08:04:31;15.10;79.60
54006;DHT22;39919;38.160;-122.260;2022-10-18T08:07:00;15.10;79.50
54006;DHT22;39919;38.160;-122.260;2022-10-18T08:09:28;15.10;79.90
54006;DHT22;39919;38.160;-122.260;2022-10-18T08:12:00;15.10;80.20
54006;DHT22;39919;38.160;-122.260;2022-10-18T08:14:30;15.10;80.50
54006;DHT22;39919;38.160;-122.260;2022-10-18T08:16:58;15.10;80.10
54006;DHT22;39919;38.160;-122.260;2022-10-18T08:19:26;15.10;79.80
54006;DHT22;39919;38.160;-122.260;2022-10-18T08:21:54;15.10;80.80
54006;DHT22;39919;38.160;-122.260;2022-10-18T08:24:23;15.10;81.10
54006;DHT22;39919;38.160;-122.260;2022-10-18T08:26:51;15.10;81.10
54006;DHT22;39919;38.160;-122.260;2022-10-18T08:29:19;15.10;81.10
54006;DHT22;39919;38.160;-122.260;2022-10-18T08:31:50;15.10;81.20
54006;DHT22;39919;38.160;-122.260;2022-10-18T08:34:18;15.10;80.90
54006;DHT22;39919;38.160;-122.260;2022-10-18T08:36:46;15.10;81.40
54006;DHT22;39919;38.160;-122.260;2022-10-18T08:39:17;15.10;81.80
54006;DHT22;39919;38.160;-122.260;2022-10-18T08:44:37;15.10;81.20
54006;DHT22;39919;38.160;-122.260;2022-10-18T08:47:12;15.10;81.00
54006;DHT22;39919;38.160;-122.260;2022-10-18T08:49:42;15.10;81.20
54006;DHT22;39919;38.160;-122.260;2022-10-18T08:52:13;15.10;81.50
54006;DHT22;39919;38.160;-122.260;2022-10-18T08:54:46;15.10;81.50
54006;DHT22;39919;38.160;-122.260;2022-10-18T08:57:15;15.10;81.70
54006;DHT22;39919;38.160;-122.260;2022-10-18T08:59:45;15.10;81.90
54006;DHT22;39919;38.160;-122.260;2022-10-18T09:02:21;15.10;81.80
54006;DHT22;39919;38.160;-122.260;2022-10-18T09:04:56;15.10;82.30
54006;DHT22;39919;38.160;-122.260;2022-10-18T09:07:40;15.10;81.90
54006;DHT22;39919;38.160;-122.260;2022-10-18T09:10:13;15.10;82.10
54006;DHT22;39919;38.160;-122.260;2022-10-18T09:12:52;15.10;83.00
54006;DHT22;39919;38.160;-122.260;2022-10-18T09:15:28;15.10;82.70
54006;DHT22;39919;38.160;-122.260;2022-10-18T09:18:05;15.10;82.30
54006;DHT22;39919;38.160;-122.260;2022-10-18T09:20:38;15.10;82.00
54006;DHT22;39919;38.160;-122.260;2022-10-18T09:23:13;15.10;82.60
54006;DHT22;39919;38.160;-122.260;2022-10-18T09:25:44;15.10;82.50
54006;DHT22;39919;38.160;-122.260;2022-10-18T09:28:18;15.10;82.60
54006;DHT22;39919;38.160;-122.260;2022-10-18T09:30:53;15.10;82.20
54006;DHT22;39919;38.160;-122.260;2022-10-18T09:33:37;15.10;82.10
54006;DHT22;39919;38.160;-122.260;2022-10-18T09:36:07;15.10;82.50
54006;DHT22;39919;38.160;-122.260;2022-10-18T09:38:37;15.10;82.20
54006;DHT22;39919;38.160;-122.260;2022-10-18T09:41:08;15.00;82.40
54006;DHT22;39919;38.160;-122.260;2022-10-18T09:43:44;15.00;83.30
54006;DHT22;39919;38.160;-122.260;2022-10-18T09:46:18;15.10;83.70
54006;DHT22;39919;38.160;-122.260;2022-10-18T09:48:50;15.00;83.20
54006;DHT22;39919;38.160;-122.260;2022-10-18T09:51:20;15.00;83.50
54006;DHT22;39919;38.160;-122.260;2022-10-18T09:53:53;15.00;84.10
54006;DHT22;39919;38.160;-122.260;2022-10-18T09:56:24;15.00;84.50
54006;DHT22;39919;38.160;-122.260;2022-10-18T09:58:53;15.00;84.90
54006;DHT22;39919;38.160;-122.260;2022-10-18T10:01:25;15.00;85.10
54006;DHT22;39919;38.160;-122.260;2022-10-18T10:03:55;15.00;85.30
54006;DHT22;39919;38.160;-122.260;2022-10-18T10:06:24;15.00;85.70
54006;DHT22;39919;38.160;-122.260;2022-10-18T10:08:53;15.00;85.90
54006;DHT22;39919;38.160;-122.260;2022-10-18T10:11:26;14.90;85.50
54006;DHT22;39919;38.160;-122.260;2022-10-18T10:13:59;14.90;85.40
54006;DHT22;39919;38.160;-122.260;2022-10-18T10:16:40;14.90;85.30
54006;DHT22;39919;38.160;-122.260;2022-10-18T10:19:16;14.90;84.90
54006;DHT22;39919;38.160;-122.260;2022-10-18T10:21:46;14.90;84.60
54006;DHT22;39919;38.160;-122.260;2022-10-18T10:24:20;14.90;84.50
54006;DHT22;39919;38.160;-122.260;2022-10-18T10:26:52;14.90;84.40
54006;DHT22;39919;38.160;-122.260;2022-10-18T10:32:12;14.90;85.00
54006;DHT22;39919;38.160;-122.260;2022-10-18T10:34:44;14.90;85.40
54006;DHT22;39919;38.160;-122.260;2022-10-18T10:37:20;14.80;85.00
54006;DHT22;39919;38.160;-122.260;2022-10-18T10:40:03;14.80;85.90
54006;DHT22;39919;38.160;-122.260;2022-10-18T10:42:32;14.80;86.30
54006;DHT22;39919;38.160;-122.260;2022-10-18T10:45:03;14.80;86.00
54006;DHT22;39919;38.160;-122.260;2022-10-18T10:47:31;14.80;85.90
54006;DHT22;39919;38.160;-122.260;2022-10-18T10:50:07;14.80;86.70
54006;DHT22;39919;38.160;-122.260;2022-10-18T10:52:36;14.80;87.10
54006;DHT22;39919;38.160;-122.260;2022-10-18T10:55:05;14.80;87.30
54006;DHT22;39919;38.160;-122.260;2022-10-18T10:57:34;14.80;88.10
54006;DHT22;39919;38.160;-122.260;2022-10-18T11:00:02;14.70;87.60
54006;DHT22;39919;38.160;-122.260;2022-10-18T11:02:31;14.80;87.80
54006;DHT22;39919;38.160;-122.260;2022-10-18T11:05:14;14.80;88.00
54006;DHT22;39919;38.160;-122.260;2022-10-18T11:07:43;14.70;87.80
54006;DHT22;39919;38.160;-122.260;2022-10-18T11:10:12;14.70;87.60
54006;DHT22;39919;38.160;-122.260;2022-10-18T11:12:42;14.70;87.70
54006;DHT22;39919;38.160;-122.260;2022-10-18T11:15:16;14.70;87.70
54006;DHT22;39919;38.160;-122.260;2022-10-18T11:17:46;14.70;88.00
54006;DHT22;39919;38.160;-122.260;2022-10-18T11:20:20;14.70;88.30
54006;DHT22;39919;38.160;-122.260;2022-10-18T11:22:58;14.70;87.90
54006;DHT22;39919;38.160;-122.260;2022-10-18T11:28:12;14.70;88.10
54006;DHT22;39919;38.160;-122.260;2022-10-18T11:30:47;14.70;88.10
54006;DHT22;39919;38.160;-122.260;2022-10-18T11:33:20;14.70;87.80
54006;DHT22;39919;38.160;-122.260;2022-10-18T11:35:53;14.60;87.50
54006;DHT22;39919;38.160;-122.260;2022-10-18T11:38:26;14.60;87.40
54006;DHT22;39919;38.160;-122.260;2022-10-18T11:41:12;14.60;87.80
54006;DHT22;39919;38.160;-122.260;2022-10-18T11:43:45;14.60;87.70
54006;DHT22;39919;38.160;-122.260;2022-10-18T11:46:18;14.60;87.40
54006;DHT22;39919;38.160;-122.260;2022-10-18T11:48:52;14.60;87.20
54006;DHT22;39919;38.160;-122.260;2022-10-18T11:51:26;14.60;87.40
54006;DHT22;39919;38.160;-122.260;2022-10-18T11:53:59;14.60;87.70
54006;DHT22;39919;38.160;-122.260;2022-10-18T11:56:34;14.60;87.60
54006;DHT22;39919;38.160;-122.260;2022-10-18T11:59:07;14.60;87.20
54006;DHT22;39919;38.160;-122.260;2022-10-18T12:01:40;14.60;86.80
54006;DHT22;39919;38.160;-122.260;2022-10-18T12:04:10;14.50;86.50
54006;DHT22;39919;38.160;-122.260;2022-10-18T12:06:44;14.50;86.30
54006;DHT22;39919;38.160;-122.260;2022-10-18T12:09:16;14.50;86.20
54006;DHT22;39919;38.160;-122.260;2022-10-18T12:11:46;14.50;86.30
54006;DHT22;39919;38.160;-122.260;2022-10-18T12:14:19;14.50;86.30
54006;DHT22;39919;38.160;-122.260;2022-10-18T12:16:50;14.50;86.70
54006;DHT22;39919;38.160;-122.260;2022-10-18T12:19:19;14.50;86.70
54006;DHT22;39919;38.160;-122.260;2022-10-18T12:21:49;14.50;87.60
54006;DHT22;39919;38.160;-122.260;2022-10-18T12:24:19;14.50;87.30
54006;DHT22;39919;38.160;-122.260;2022-10-18T12:26:49;14.50;87.40
54006;DHT22;39919;38.160;-122.260;2022-10-18T12:29:20;14.50;88.10
54006;DHT22;39919;38.160;-122.260;2022-10-18T12:31:51;14.50;87.90
54006;DHT22;39919;38.160;-122.260;2022-10-18T12:34:28;14.50;88.40
54006;DHT22;39919;38.160;-122.260;2022-10-18T12:37:03;14.40;88.40
54006;DHT22;39919;38.160;-122.260;2022-10-18T12:39:34;14.50;88.20
54006;DHT22;39919;38.160;-122.260;2022-10-18T12:42:04;14.40;88.50
54006;DHT22;39919;38.160;-122.260;2022-10-18T12:44:33;14.40;89.00
54006;DHT22;39919;38.160;-122.260;2022-10-18T12:47:02;14.40;88.90
54006;DHT22;39919;38.160;-122.260;2022-10-18T12:49:31;14.40;89.00
54006;DHT22;39919;38.160;-122.260;2022-10-18T12:52:02;14.40;89.10
54006;DHT22;39919;38.160;-122.260;2022-10-18T12:54:33;14.40;88.90
54006;DHT22;39919;38.160;-122.260;2022-10-18T12:57:01;14.40;89.30
54006;DHT22;39919;38.160;-122.260;2022-10-18T13:02:22;14.40;90.00
54006;DHT22;39919;38.160;-122.260;2022-10-18T13:04:51;14.40;89.90
54006;DHT22;39919;38.160;-122.260;2022-10-18T13:07:33;14.30;89.40
54006;DHT22;39919;38.160;-122.260;2022-10-18T13:12:54;14.30;88.60
54006;DHT22;39919;38.160;-122.260;2022-10-18T13:18:15;14.30;88.80
54006;DHT22;39919;38.160;-122.260;2022-10-18T13:20:47;14.30;89.60
54006;DHT22;39919;38.160;-122.260;2022-10-18T13:23:28;14.30;89.80
54006;DHT22;39919;38.160;-122.260;2022-10-18T13:25:59;14.30;90.10
54006;DHT22;39919;38.160;-122.260;2022-10-18T13:28:33;14.30;90.30
54006;DHT22;39919;38.160;-122.260;2022-10-18T13:31:17;14.20;90.30
54006;DHT22;39919;38.160;-122.260;2022-10-18T13:33:46;14.20;90.00
54006;DHT22;39919;38.160;-122.260;2022-10-18T13:36:21;14.20;89.80
54006;DHT22;39919;38.160;-122.260;2022-10-18T13:39:02;14.20;89.40
54006;DHT22;39919;38.160;-122.260;2022-10-18T13:41:31;14.20;90.00
54006;DHT22;39919;38.160;-122.260;2022-10-18T13:49:52;14.10;90.20
54006;DHT22;39919;38.160;-122.260;2022-10-18T13:52:25;14.10;90.40
54006;DHT22;39919;38.160;-122.260;2022-10-18T13:55:07;14.10;90.70
54006;DHT22;39919;38.160;-122.260;2022-10-18T13:57:47;14.10;90.70
54006;DHT22;39919;38.160;-122.260;2022-10-18T14:06:05;14.00;90.20
54006;DHT22;39919;38.160;-122.260;2022-10-18T14:08:39;14.00;90.10
54006;DHT22;39919;38.160;-122.260;2022-10-18T14:11:17;14.00;90.10
54006;DHT22;39919;38.160;-122.260;2022-10-18T14:13:53;14.00;90.30
54006;DHT22;39919;38.160;-122.260;2022-10-18T14:16:27;13.90;90.30
54006;DHT22;39919;38.160;-122.260;2022-10-18T14:18:58;13.90;90.40
54006;DHT22;39919;38.160;-122.260;2022-10-18T14:21:30;13.90;90.40
54006;DHT22;39919;38.160;-122.260;2022-10-18T14:23:59;13.80;90.20
54006;DHT22;39919;38.160;-122.260;2022-10-18T14:26:29;13.80;90.30
54006;DHT22;39919;38.160;-122.260;2022-10-18T14:29:02;13.80;90.50
54006;DHT22;39919;38.160;-122.260;2022-10-18T14:31:30;13.80;90.80
54006;DHT22;39919;38.160;-122.260;2022-10-18T14:33:59;13.80;91.00
54006;DHT22;39919;38.160;-122.260;2022-10-18T14:36:28;13.80;91.10
54006;DHT22;39919;38.160;-122.260;2022-10-18T14:38:57;13.80;91.00
54006;DHT22;39919;38.160;-122.260;2022-10-18T14:41:27;13.70;91.00
54006;DHT22;39919;38.160;-122.260;2022-10-18T14:46:42;13.70;91.10
54006;DHT22;39919;38.160;-122.260;2022-10-18T14:49:11;13.70;91.00
54006;DHT22;39919;38.160;-122.260;2022-10-18T14:51:40;13.70;91.00
54006;DHT22;39919;38.160;-122.260;2022-10-18T14:54:12;13.70;91.50
54006;DHT22;39919;38.160;-122.260;2022-10-18T14:56:41;13.70;91.50
54006;DHT22;39919;38.160;-122.260;2022-10-18T14:59:15;13.80;91.40
54006;DHT22;39919;38.160;-122.260;2022-10-18T15:01:53;13.80;91.50
54006;DHT22;39919;38.160;-122.260;2022-10-18T15:04:25;13.80;91.40
54006;DHT22;39919;38.160;-122.260;2022-10-18T15:06:58;13.80;91.40
54006;DHT22;39919;38.160;-122.260;2022-10-18T15:09:29;13.80;91.70
54006;DHT22;39919;38.160;-122.260;2022-10-18T15:11:58;13.90;91.60
54006;DHT22;39919;38.160;-122.260;2022-10-18T15:14:27;13.90;91.70
54006;DHT22;39919;38.160;-122.260;2022-10-18T15:16:59;13.90;91.70
54006;DHT22;39919;38.160;-122.260;2022-10-18T15:19:30;14.00;91.60
54006;DHT22;39919;38.160;-122.260;2022-10-18T15:21:59;14.00;91.60
54006;DHT22;39919;38.160;-122.260;2022-10-18T15:24:29;14.10;91.70
54006;DHT22;39919;38.160;-122.260;2022-10-18T15:26:59;14.20;91.60
54006;DHT22;39919;38.160;-122.260;2022-10-18T15:29:29;14.20;91.50
54006;DHT22;39919;38.160;-122.260;2022-10-18T15:32:11;14.30;91.60
54006;DHT22;39919;38.160;-122.260;2022-10-18T15:34:41;14.50;91.20
54006;DHT22;39919;38.160;-122.260;2022-10-18T15:37:16;14.60;91.10
54006;DHT22;39919;38.160;-122.260;2022-10-18T15:39:45;14.60;91.00
54006;DHT22;39919;38.160;-122.260;2022-10-18T15:45:01;14.90;91.00
54006;DHT22;39919;38.160;-122.260;2022-10-18T15:47:31;15.10;91.00